createdAt,value
2024-03-12T00:01:09.193Z,72.45
2024-03-12T00:03:45.499Z,72.43
2024-03-12T00:06:14.349Z,71.50
2024-03-12T00:08:44.701Z,74.88
2024-03-12T00:11:13.298Z,78.25
2024-03-12T00:16:13.272Z,82.05
2024-03-12T00:18:42.318Z,83.13
2024-03-12T00:23:42.970Z,94.15
2024-03-12T00:26:11.917Z,104.65
2024-03-12T00:31:13.864Z,116.50
2024-03-12T00:33:44.933Z,103.30
2024-03-12T00:36:13.796Z,105.85
2024-03-12T00:38:42.994Z,97.97
2024-03-12T00:41:12.739Z,101.95
2024-03-12T00:43:41.392Z,113.97
2024-03-12T00:46:12.603Z,58.17
2024-03-12T00:48:44.525Z,54.20
2024-03-12T00:51:13.168Z,51.97
2024-03-12T00:53:41.888Z,51.28
2024-03-12T00:56:16.471Z,49.35
2024-03-12T00:58:44.928Z,48.88
2024-03-12T01:01:16.644Z,49.22
2024-03-12T01:03:49.807Z,47.58
2024-03-12T01:06:18.433Z,44.70
2024-03-12T01:08:47.571Z,46.70
2024-03-12T01:11:16.125Z,45.33
2024-03-12T01:13:45.443Z,44.90
2024-03-12T01:16:16.501Z,44.92
2024-03-12T01:18:47.597Z,44.72
2024-03-12T01:21:16.013Z,43.70
2024-03-12T01:23:44.549Z,43.58
2024-03-12T01:26:16.901Z,44.20
2024-03-12T01:28:47.354Z,45.15
2024-03-12T01:31:17.157Z,41.10
2024-03-12T01:33:48.313Z,44.22
2024-03-12T01:36:22.259Z,44.58
2024-03-12T01:39:17.367Z,43.53
2024-03-12T01:41:48.478Z,43.80
2024-03-12T01:44:18.548Z,41.60
2024-03-12T01:46:47.450Z,41.25
2024-03-12T01:49:19.933Z,43.38
2024-03-12T01:51:48.209Z,45.22
2024-03-12T01:54:16.689Z,36.88
2024-03-12T01:56:45.050Z,39.22
2024-03-12T01:59:17.242Z,43.50
2024-03-12T02:01:45.971Z,46.13
2024-03-12T02:04:18.298Z,46.45
2024-03-12T02:06:47.669Z,44.67
2024-03-12T02:09:16.162Z,45.80
2024-03-12T02:11:45.987Z,43.72
2024-03-12T02:16:43.613Z,54.17
2024-03-12T02:19:12.077Z,49.83
2024-03-12T02:21:43.881Z,47.55
2024-03-12T02:24:13.630Z,47.00
2024-03-12T02:26:42.386Z,46.55
2024-03-12T02:29:11.784Z,45.67
2024-03-12T02:31:40.093Z,42.88
2024-03-12T02:34:08.811Z,44.25
2024-03-12T02:36:38.702Z,42.63
2024-03-12T02:39:07.810Z,47.53
2024-03-12T02:44:07.587Z,54.20
2024-03-12T02:46:36.275Z,49.67
2024-03-12T02:49:04.952Z,49.15
2024-03-12T02:51:33.531Z,49.85
2024-03-12T02:54:02.179Z,45.35
2024-03-12T02:56:30.476Z,44.00
2024-03-12T02:59:00.582Z,44.80
2024-03-12T03:01:49.920Z,46.70
2024-03-12T03:04:18.608Z,44.30
2024-03-12T03:06:48.185Z,47.65
2024-03-12T03:09:18.909Z,44.75
2024-03-12T03:11:47.628Z,44.38
2024-03-12T03:14:17.845Z,43.35
2024-03-12T03:16:46.780Z,44.53
2024-03-12T03:21:45.423Z,54.03
2024-03-12T03:24:13.992Z,47.17
2024-03-12T03:26:42.514Z,49.53
2024-03-12T03:29:12.092Z,48.67
2024-03-12T03:31:44.695Z,48.25
2024-03-12T03:34:15.265Z,47.20
2024-03-12T03:36:44.846Z,47.80
2024-03-12T03:39:13.438Z,46.92
2024-03-12T03:41:42.062Z,48.88
2024-03-12T03:44:11.136Z,47.25
2024-03-12T03:46:39.751Z,47.97
2024-03-12T03:49:09.897Z,49.97
2024-03-12T03:51:38.406Z,48.88
2024-03-12T03:54:08.987Z,48.85
2024-03-12T03:56:39.652Z,49.28
2024-03-12T03:59:08.102Z,48.92
2024-03-12T04:01:36.920Z,51.28
2024-03-12T04:06:56.308Z,52.05
2024-03-12T04:09:27.063Z,53.03
2024-03-12T04:11:59.820Z,54.55
2024-03-12T04:14:28.449Z,50.83
2024-03-12T04:16:56.821Z,53.58
2024-03-12T04:19:25.426Z,54.10
2024-03-12T04:21:56.298Z,54.90
2024-03-12T04:24:26.314Z,56.60
2024-03-12T04:26:55.772Z,57.38
2024-03-12T04:29:23.880Z,62.97
2024-03-12T04:31:52.436Z,67.30
2024-03-12T04:34:22.162Z,73.45
2024-03-12T04:36:50.844Z,78.30
2024-03-12T04:39:31.905Z,95.47
2024-03-12T04:42:03.430Z,105.53
2024-03-12T04:44:32.381Z,118.07
2024-03-12T04:49:32.488Z,103.25
2024-03-12T04:52:02.758Z,103.50
2024-03-12T04:54:33.670Z,106.60
2024-03-12T04:57:02.912Z,96.88
2024-03-12T04:59:32.917Z,88.65
2024-03-12T05:02:04.427Z,78.10
2024-03-12T05:04:32.947Z,80.03
2024-03-12T05:07:01.571Z,82.88
2024-03-12T05:09:30.404Z,84.15
2024-03-12T05:14:32.654Z,89.03
2024-03-12T05:17:01.196Z,87.38
2024-03-12T05:19:30.408Z,82.82
2024-03-12T05:21:58.929Z,84.07
2024-03-12T05:24:31.261Z,83.80
2024-03-12T05:27:04.707Z,83.80
2024-03-12T05:29:38.197Z,84.28
2024-03-12T05:32:19.170Z,85.97
2024-03-12T05:34:48.720Z,87.05
2024-03-12T05:37:30.069Z,87.97
2024-03-12T05:40:16.037Z,88.68
2024-03-12T05:43:04.308Z,88.50
2024-03-12T05:45:50.318Z,90.30
2024-03-12T05:48:18.816Z,91.68
2024-03-12T05:50:48.035Z,93.25
2024-03-12T05:53:16.913Z,94.70
2024-03-12T05:55:45.170Z,105.68
2024-03-12T05:58:16.804Z,120.68
2024-03-12T06:00:46.487Z,118.50
2024-03-12T06:03:16.111Z,83.90
2024-03-12T06:05:44.866Z,101.05
2024-03-12T06:08:13.129Z,95.55
2024-03-12T06:10:42.400Z,92.63
2024-03-12T06:13:10.578Z,93.03
2024-03-12T06:15:40.428Z,87.97
2024-03-12T06:18:08.622Z,93.63
2024-03-12T06:20:37.090Z,94.90
2024-03-12T06:23:05.549Z,93.30
2024-03-12T06:25:33.763Z,96.05
2024-03-12T06:28:06.804Z,101.93
2024-03-12T06:30:36.378Z,116.20
2024-03-12T06:33:07.732Z,116.45
2024-03-12T06:35:37.200Z,118.15
2024-03-12T06:38:06.281Z,85.25
2024-03-12T06:40:35.620Z,79.45
2024-03-12T06:43:03.779Z,75.70
2024-03-12T06:45:32.786Z,74.53
2024-03-12T06:48:01.624Z,73.55
2024-03-12T06:50:31.545Z,74.47
2024-03-12T06:53:00.065Z,72.80
2024-03-12T06:55:28.846Z,71.95
2024-03-12T06:58:01.525Z,72.35
2024-03-12T07:00:33.845Z,73.80
2024-03-12T07:03:04.392Z,71.25
2024-03-12T07:05:39.052Z,72.90
2024-03-12T07:08:08.348Z,73.30
2024-03-12T07:10:38.638Z,75.43
2024-03-12T07:13:08.526Z,73.85
2024-03-12T07:15:40.473Z,74.55
2024-03-12T07:18:09.446Z,74.43
2024-03-12T07:23:07.918Z,74.78
2024-03-12T07:25:36.674Z,77.85
2024-03-12T07:28:14.424Z,75.90
2024-03-12T07:30:45.745Z,75.38
2024-03-12T07:33:14.597Z,77.57
2024-03-12T07:35:45.340Z,74.18
2024-03-12T07:38:13.526Z,76.15
2024-03-12T07:40:44.993Z,76.85
2024-03-12T07:43:15.889Z,72.35
2024-03-12T07:45:51.135Z,77.53
2024-03-12T07:48:23.679Z,77.95
2024-03-12T07:51:03.201Z,78.68
2024-03-12T07:53:32.007Z,80.35
2024-03-12T07:56:02.465Z,83.18
2024-03-12T07:58:31.131Z,82.60
2024-03-12T08:01:00.249Z,83.28
2024-03-12T08:03:29.089Z,83.13
2024-03-12T08:06:00.904Z,83.18
2024-03-12T08:08:29.306Z,85.97
2024-03-12T08:10:58.861Z,83.68
2024-03-12T08:13:28.517Z,87.88
2024-03-12T08:15:57.184Z,93.05
2024-03-12T08:18:25.870Z,114.00
2024-03-12T08:20:54.244Z,104.93
2024-03-12T08:23:25.348Z,79.53
2024-03-12T08:25:56.774Z,74.85
2024-03-12T08:31:02.428Z,76.30
2024-03-12T08:33:36.890Z,68.53
2024-03-12T08:38:36.108Z,71.35
2024-03-12T08:41:04.652Z,64.10
2024-03-12T08:43:35.932Z,60.08
2024-03-12T08:46:04.906Z,60.22
2024-03-12T08:51:04.397Z,61.47
2024-03-12T08:53:37.901Z,57.88
2024-03-12T08:56:07.084Z,55.38
2024-03-12T08:58:35.477Z,52.78
2024-03-12T09:01:04.835Z,50.58
2024-03-12T09:03:34.791Z,46.67
2024-03-12T09:06:04.597Z,44.30
2024-03-12T09:08:35.163Z,42.83
2024-03-12T09:11:07.655Z,42.47
2024-03-12T09:13:40.179Z,43.78
2024-03-12T09:16:16.115Z,39.42
2024-03-12T09:18:45.961Z,42.95
2024-03-12T09:21:14.984Z,39.40
2024-03-12T09:23:52.806Z,41.08
2024-03-12T09:26:29.375Z,45.42
2024-03-12T09:29:15.487Z,42.95
2024-03-12T09:31:44.949Z,40.75
2024-03-12T09:34:13.787Z,40.80
2024-03-12T09:39:19.938Z,50.00
2024-03-12T09:41:57.999Z,44.40
2024-03-12T09:44:27.217Z,40.88
2024-03-12T09:46:56.324Z,39.75
2024-03-12T09:52:07.903Z,38.25
2024-03-12T09:54:38.803Z,32.88
2024-03-12T09:57:07.806Z,31.42
2024-03-12T09:59:37.790Z,34.90
2024-03-12T10:02:07.060Z,38.42
2024-03-12T10:04:35.552Z,32.25
2024-03-12T10:07:07.426Z,28.42
2024-03-12T10:09:40.908Z,28.23
2024-03-12T10:12:12.334Z,31.65
2024-03-12T10:14:48.907Z,29.70
2024-03-12T10:17:19.303Z,28.13
2024-03-12T10:19:53.089Z,27.42
2024-03-12T10:22:23.421Z,22.02
2024-03-12T10:24:53.925Z,26.25
2024-03-12T10:27:22.197Z,26.23
2024-03-12T10:29:51.160Z,23.92
2024-03-12T10:32:20.449Z,27.30
2024-03-12T10:34:49.704Z,25.90
2024-03-12T10:37:28.227Z,22.95
2024-03-12T10:40:14.531Z,26.88
2024-03-12T10:42:54.137Z,27.75
2024-03-12T10:45:23.949Z,28.20
2024-03-12T10:47:53.036Z,25.95
2024-03-12T10:50:24.930Z,24.40
2024-03-12T10:52:55.680Z,24.30
2024-03-12T10:55:34.416Z,26.35
2024-03-12T10:58:05.639Z,24.85
2024-03-12T11:00:36.772Z,24.42
2024-03-12T11:03:06.578Z,25.52
2024-03-12T11:05:40.511Z,25.67
2024-03-12T11:08:11.676Z,28.48
2024-03-12T11:10:43.557Z,25.75
2024-03-12T11:13:14.563Z,25.25
2024-03-12T11:15:43.954Z,26.33
2024-03-12T11:18:12.654Z,24.38
2024-03-12T11:20:41.758Z,28.08
2024-03-12T11:23:11.837Z,26.33
2024-03-12T11:25:51.008Z,29.92
2024-03-12T11:28:22.116Z,26.98
2024-03-12T11:31:02.317Z,27.30
2024-03-12T11:33:56.866Z,26.17
2024-03-12T11:36:35.569Z,31.90
2024-03-12T11:39:22.917Z,30.88
2024-03-12T11:44:49.460Z,42.35
2024-03-12T11:47:32.145Z,36.25
2024-03-12T11:50:05.002Z,32.80
2024-03-12T11:52:35.255Z,29.33
2024-03-12T11:55:06.214Z,31.23
2024-03-12T11:57:36.363Z,31.15
2024-03-12T12:00:11.047Z,31.88
2024-03-12T12:02:45.196Z,30.40
2024-03-12T12:05:14.749Z,29.02
2024-03-12T12:07:43.090Z,27.75
2024-03-12T12:10:13.199Z,30.65
2024-03-12T12:12:44.741Z,31.73
2024-03-12T12:15:19.048Z,30.55
2024-03-12T12:17:47.872Z,28.80
2024-03-12T12:22:52.693Z,38.88
2024-03-12T12:25:27.550Z,29.92
2024-03-12T12:27:56.752Z,28.23
2024-03-12T12:30:28.832Z,27.58
2024-03-12T12:32:58.355Z,28.23
2024-03-12T12:35:29.523Z,28.00
2024-03-12T12:37:58.560Z,27.60
2024-03-12T12:40:27.706Z,26.30
2024-03-12T12:42:56.848Z,22.13
2024-03-12T12:45:31.509Z,23.50
2024-03-12T12:48:00.665Z,25.85
2024-03-12T12:50:35.003Z,25.17
2024-03-12T12:53:05.788Z,22.85
2024-03-12T12:55:56.071Z,27.52
2024-03-12T12:58:27.410Z,30.58
2024-03-12T13:03:52.153Z,27.30
2024-03-12T13:06:24.093Z,25.65
2024-03-12T13:08:54.009Z,25.45
2024-03-12T13:11:23.518Z,24.88
2024-03-12T13:13:53.004Z,22.42
2024-03-12T13:16:25.330Z,23.30
2024-03-12T13:18:57.328Z,22.35
2024-03-12T13:21:29.014Z,20.08
2024-03-12T13:24:00.023Z,22.98
2024-03-12T13:26:32.998Z,25.30
2024-03-12T13:29:01.420Z,25.30
2024-03-12T13:31:42.520Z,22.83
2024-03-12T13:34:11.382Z,22.50
2024-03-12T13:36:40.554Z,19.05
2024-03-12T13:39:09.062Z,22.02
2024-03-12T13:41:38.893Z,19.70
2024-03-12T13:44:07.943Z,23.98
2024-03-12T13:46:42.204Z,19.63
2024-03-12T13:49:29.145Z,23.60
2024-03-12T13:52:00.047Z,22.27
2024-03-12T13:54:28.573Z,21.05
2024-03-12T13:57:09.176Z,19.92
2024-03-12T13:59:41.220Z,23.80
2024-03-12T14:02:14.999Z,22.80
2024-03-12T14:04:44.262Z,21.40
2024-03-12T14:07:15.257Z,20.98
2024-03-12T14:09:45.207Z,21.05
2024-03-12T14:12:14.469Z,19.50
2024-03-12T14:14:43.238Z,20.95
2024-03-12T14:19:44.062Z,26.13
2024-03-12T14:22:13.167Z,21.65
2024-03-12T14:24:44.381Z,23.25
2024-03-12T14:27:18.827Z,21.75
2024-03-12T14:29:47.678Z,22.20
2024-03-12T14:34:47.209Z,26.20
2024-03-12T14:37:19.957Z,23.90
2024-03-12T14:39:49.690Z,19.20
2024-03-12T14:42:18.375Z,23.13
2024-03-12T14:44:46.727Z,22.70
2024-03-12T14:47:16.656Z,22.85
2024-03-12T14:49:46.913Z,22.60
2024-03-12T14:52:15.960Z,20.33
2024-03-12T14:54:44.462Z,21.73
2024-03-12T14:57:12.980Z,23.55
2024-03-12T14:59:41.597Z,20.27
2024-03-12T15:02:11.448Z,22.63
2024-03-12T15:04:39.754Z,24.05
2024-03-12T15:07:10.696Z,21.63
2024-03-12T15:09:44.633Z,21.17
2024-03-12T15:12:14.641Z,22.80
2024-03-12T15:14:42.875Z,19.33
2024-03-12T15:17:13.319Z,17.85
2024-03-12T15:19:41.651Z,18.10
2024-03-12T15:22:11.560Z,19.15
2024-03-12T15:24:41.200Z,14.18
2024-03-12T15:27:11.613Z,18.95
2024-03-12T15:29:40.726Z,16.20
2024-03-12T15:32:12.198Z,18.20
2024-03-12T15:34:40.516Z,21.50
2024-03-12T15:37:10.874Z,16.48
2024-03-12T15:39:39.190Z,17.67
2024-03-12T15:42:09.551Z,17.30
2024-03-12T15:44:38.459Z,14.68
2024-03-12T15:47:07.680Z,17.10
2024-03-12T15:49:38.675Z,16.65
2024-03-12T15:52:08.504Z,14.98
2024-03-12T15:57:11.200Z,28.50
2024-03-12T15:59:39.449Z,20.95
2024-03-12T16:02:09.203Z,20.75
2024-03-12T16:04:38.416Z,17.48
2024-03-12T16:07:07.150Z,19.42
2024-03-12T16:09:36.747Z,15.70
2024-03-12T16:12:08.170Z,18.70
2024-03-12T16:14:37.077Z,19.80
2024-03-12T16:19:35.989Z,29.63
2024-03-12T16:24:33.167Z,35.10
2024-03-12T16:27:02.157Z,26.13
2024-03-12T16:32:01.665Z,34.33
2024-03-12T16:34:30.823Z,26.77
2024-03-12T16:36:59.096Z,27.30
2024-03-12T16:39:27.464Z,26.80
2024-03-12T16:41:57.828Z,24.23
2024-03-12T16:44:27.013Z,24.63
2024-03-12T16:46:57.473Z,23.23
2024-03-12T16:49:27.335Z,24.15
2024-03-12T16:51:55.829Z,24.67
2024-03-12T16:54:24.652Z,23.13
2024-03-12T16:59:23.301Z,37.13
2024-03-12T17:01:52.541Z,33.42
2024-03-12T17:04:24.488Z,30.33
2024-03-12T17:06:58.016Z,29.50
2024-03-12T17:09:26.666Z,29.50
2024-03-12T17:11:55.497Z,29.48
2024-03-12T17:17:06.619Z,42.13
2024-03-12T17:19:39.241Z,38.17
2024-03-12T17:22:11.423Z,34.65
2024-03-12T17:24:41.176Z,31.85
2024-03-12T17:27:10.666Z,31.10
2024-03-12T17:29:39.558Z,30.90
2024-03-12T17:32:11.771Z,31.23
2024-03-12T17:34:42.992Z,31.90
2024-03-12T17:37:16.449Z,32.10
2024-03-12T17:39:49.023Z,33.33
2024-03-12T17:42:21.148Z,34.13
2024-03-12T17:44:50.307Z,32.53
2024-03-12T17:47:22.313Z,33.75
2024-03-12T17:49:54.044Z,34.33
2024-03-12T17:52:23.498Z,34.42
2024-03-12T17:54:52.662Z,36.08
2024-03-12T17:57:22.198Z,34.17
2024-03-12T17:59:50.777Z,35.63
2024-03-12T18:02:19.818Z,33.85
2024-03-12T18:04:48.554Z,36.45
2024-03-12T18:07:24.459Z,34.90
2024-03-12T18:09:55.956Z,38.20
2024-03-12T18:12:24.757Z,36.95
2024-03-12T18:14:53.078Z,38.25
2024-03-12T18:17:22.569Z,39.80
2024-03-12T18:19:51.144Z,37.72
2024-03-12T18:22:23.494Z,40.13
2024-03-12T18:24:53.761Z,42.42
2024-03-12T18:27:23.873Z,40.30
2024-03-12T18:29:53.052Z,41.97
2024-03-12T18:32:21.858Z,42.13
2024-03-12T18:34:51.232Z,43.53
2024-03-12T18:37:21.150Z,43.15
2024-03-12T18:39:49.450Z,43.97
2024-03-12T18:42:17.875Z,44.20
2024-03-12T18:44:46.055Z,44.65
2024-03-12T18:47:15.366Z,44.15
2024-03-12T18:49:44.293Z,44.42
2024-03-12T18:54:43.035Z,55.05
2024-03-12T18:57:12.180Z,51.97
2024-03-12T18:59:41.017Z,49.13
2024-03-12T19:04:49.864Z,55.75
2024-03-12T19:07:18.961Z,52.05
2024-03-12T19:09:50.077Z,51.00
2024-03-12T19:12:19.842Z,48.50
2024-03-12T19:14:50.028Z,49.10
2024-03-12T19:17:19.589Z,45.72
2024-03-12T19:19:49.336Z,48.90
2024-03-12T19:22:18.784Z,48.22
2024-03-12T19:24:51.620Z,47.33
2024-03-12T19:27:30.864Z,49.70
2024-03-12T19:30:00.081Z,49.08
2024-03-12T19:32:28.859Z,49.65
2024-03-12T19:34:57.680Z,51.17
2024-03-12T19:37:31.156Z,46.85
2024-03-12T19:40:02.176Z,43.10
2024-03-12T19:42:31.360Z,45.95
2024-03-12T19:45:00.396Z,46.78
2024-03-12T19:47:29.244Z,45.60
2024-03-12T19:52:28.473Z,51.58
2024-03-12T19:54:57.215Z,51.30
2024-03-12T19:57:26.724Z,47.47
2024-03-12T19:59:55.004Z,46.72
2024-03-12T20:02:23.520Z,47.92
2024-03-12T20:04:52.127Z,49.75
2024-03-12T20:07:21.273Z,48.90
2024-03-12T20:09:49.575Z,46.70
2024-03-12T20:12:17.947Z,48.72
2024-03-12T20:14:49.503Z,50.63
2024-03-12T20:17:17.776Z,48.72
2024-03-12T20:19:48.042Z,46.35
2024-03-12T20:22:16.371Z,49.58
2024-03-12T20:24:44.904Z,47.58
2024-03-12T20:27:13.217Z,45.30
2024-03-12T20:29:41.508Z,45.97
2024-03-12T20:32:12.172Z,48.75
2024-03-12T20:34:42.463Z,45.80
2024-03-12T20:37:11.065Z,47.58
2024-03-12T20:39:41.381Z,45.90
2024-03-12T20:42:10.086Z,44.65
2024-03-12T20:44:39.608Z,44.83
2024-03-12T20:47:08.362Z,44.72
2024-03-12T20:49:38.449Z,44.47
2024-03-12T20:52:09.396Z,42.75
2024-03-12T20:54:37.751Z,44.92
2024-03-12T20:57:06.668Z,44.20
2024-03-12T20:59:35.864Z,44.22
2024-03-12T21:02:05.135Z,44.72
2024-03-12T21:04:33.377Z,44.60
2024-03-12T21:07:05.336Z,45.63
2024-03-12T21:09:34.037Z,45.47
2024-03-12T21:12:02.609Z,44.50
2024-03-12T21:14:30.207Z,46.00
2024-03-12T21:16:59.632Z,44.78
2024-03-12T21:19:27.864Z,45.10
2024-03-12T21:21:57.549Z,44.58
2024-03-12T21:24:27.486Z,44.63
2024-03-12T21:27:05.277Z,43.92
2024-03-12T21:29:34.366Z,46.22
2024-03-12T21:32:02.983Z,44.60
2024-03-12T21:34:31.477Z,43.00
2024-03-12T21:37:00.193Z,43.83
2024-03-12T21:39:29.927Z,43.28
2024-03-12T21:42:01.119Z,44.30
2024-03-12T21:44:29.799Z,45.63
2024-03-12T21:46:58.189Z,44.20
2024-03-12T21:49:26.556Z,46.30
2024-03-12T21:51:57.267Z,44.20
2024-03-12T21:54:25.983Z,45.38
2024-03-12T21:56:55.679Z,45.50
2024-03-12T21:59:23.982Z,45.85
2024-03-12T22:01:52.268Z,44.55
2024-03-12T22:04:21.188Z,45.83
2024-03-12T22:09:19.293Z,53.90
2024-03-12T22:11:48.139Z,49.47
2024-03-12T22:14:18.939Z,46.90
2024-03-12T22:16:47.438Z,45.00
2024-03-12T22:19:16.299Z,42.15
2024-03-12T22:24:23.104Z,51.95
2024-03-12T22:26:51.894Z,48.40
2024-03-12T22:29:21.810Z,45.88
2024-03-12T22:31:49.962Z,44.75
2024-03-12T22:34:18.401Z,42.08
2024-03-12T22:36:46.781Z,45.25
2024-03-12T22:39:15.399Z,42.92
2024-03-12T22:41:49.055Z,42.88
2024-03-12T22:44:18.002Z,42.60
2024-03-12T22:46:49.692Z,40.97
2024-03-12T22:49:18.181Z,43.42
2024-03-12T22:51:47.897Z,43.17
2024-03-12T22:54:16.634Z,39.65
2024-03-12T22:56:45.275Z,41.40
2024-03-12T22:59:14.016Z,39.85
2024-03-12T23:01:47.870Z,41.20
2024-03-12T23:04:18.137Z,40.72
2024-03-12T23:06:46.828Z,41.30
2024-03-12T23:09:15.451Z,38.97
2024-03-12T23:11:43.787Z,42.35
2024-03-12T23:14:13.170Z,40.42
2024-03-12T23:16:41.296Z,40.13
2024-03-12T23:19:12.711Z,40.70
2024-03-12T23:21:44.337Z,40.38
2024-03-12T23:24:14.546Z,40.40
2024-03-12T23:26:43.682Z,42.08
2024-03-12T23:29:13.260Z,41.53
2024-03-12T23:31:41.677Z,42.47
2024-03-12T23:34:10.788Z,42.35
2024-03-12T23:36:39.310Z,41.75
2024-03-12T23:39:09.105Z,41.95
2024-03-12T23:41:37.314Z,42.20
2024-03-12T23:44:05.848Z,42.17
2024-03-12T23:46:35.434Z,43.33
2024-03-12T23:49:03.800Z,42.42
2024-03-12T23:51:34.536Z,42.78
2024-03-12T23:54:02.702Z,45.40
2024-03-12T23:56:32.459Z,44.55
2024-03-12T23:59:01.053Z,43.63
